Time;durP1;ratioP1;P1;durP2;ratioP2;P2;SDS_P1;SDS_P2;PMS_P1;PMS_P2;Temp;Humidity;BMP_temperature;BMP_pressure;BME280_temperature;BME280_humidity;BME280_pressure;Samples;Min_cycle;Max_cycle;Signal;HPM_P1;HPM_P2
2020/12/11 00:01:33;;;;;;;56.80;27.00;;;;;;;;;;5022223;28;20194;-70
2020/12/11 00:03:59;;;;;;;58.03;27.50;;;;;;;;;;5019064;28;20198;-70
2020/12/11 00:06:24;;;;;;;58.40;27.03;;;;;;;;;;5024060;28;20273;-69
2020/12/11 00:08:50;;;;;;;64.53;28.83;;;;;;;;;;5020513;28;20273;-69
2020/12/11 00:11:16;;;;;;;54.87;25.83;;;;;;;;;;5025956;28;20613;-69
2020/12/11 00:13:42;;;;;;;56.00;27.50;;;;;;;;;;5021543;28;20193;-69
2020/12/11 00:16:07;;;;;;;52.60;26.83;;;;;;;;;;5021869;28;20279;-70
2020/12/11 00:18:33;;;;;;;53.90;26.63;;;;;;;;;;5020031;28;20689;-72
2020/12/11 00:20:59;;;;;;;54.23;25.67;;;;;;;;;;5026002;28;20186;-69
2020/12/11 00:23:26;;;;;;;54.83;26.70;;;;;;;;;;5016882;28;20217;-71
2020/12/11 00:25:58;;;;;;;55.77;26.27;;;;;;;;;;5018120;28;20721;-69
2020/12/11 00:28:24;;;;;;;53.30;25.97;;;;;;;;;;5028085;28;20197;-70
2020/12/11 00:30:49;;;;;;;53.43;26.87;;;;;;;;;;5020361;28;20186;-70
2020/12/11 00:33:14;;;;;;;52.70;25.93;;;;;;;;;;5027612;28;20218;-70
2020/12/11 00:35:40;;;;;;;56.47;27.00;;;;;;;;;;5016454;28;20183;-69
2020/12/11 00:38:05;;;;;;;54.30;27.33;;;;;;;;;;5027541;28;20233;-69
2020/12/11 00:40:30;;;;;;;53.87;24.63;;;;;;;;;;5016819;28;20186;-69
2020/12/11 00:42:55;;;;;;;51.57;25.90;;;;;;;;;;5029674;28;20205;-70
2020/12/11 00:45:21;;;;;;;45.17;23.87;;;;;;;;;;5017173;28;20187;-70
2020/12/11 00:47:46;;;;;;;54.90;25.93;;;;;;;;;;5027495;28;20645;-70
2020/12/11 00:50:11;;;;;;;50.90;25.37;;;;;;;;;;5015333;28;20206;-69
2020/12/11 00:52:37;;;;;;;51.93;25.77;;;;;;;;;;5027452;28;20197;-69
2020/12/11 00:55:02;;;;;;;51.10;25.43;;;;;;;;;;5015121;28;20197;-69
2020/12/11 00:57:27;;;;;;;54.77;25.80;;;;;;;;;;5028706;28;20182;-70
2020/12/11 00:59:53;;;;;;;48.03;24.77;;;;;;;;;;5025570;28;20194;-70
2020/12/11 01:02:18;;;;;;;47.13;24.33;;;;;;;;;;5020552;28;20211;-70
2020/12/11 01:04:43;;;;;;;48.10;24.10;;;;;;;;;;5024638;28;20212;-70
2020/12/11 01:07:09;;;;;;;48.50;25.07;;;;;;;;;;5016436;28;20238;-70
2020/12/11 01:09:34;;;;;;;49.77;25.17;;;;;;;;;;5024552;28;20558;-69
2020/12/11 01:11:59;;;;;;;50.13;25.27;;;;;;;;;;5019451;28;20202;-70
2020/12/11 01:14:24;;;;;;;46.80;24.20;;;;;;;;;;5023807;28;20190;-70
2020/12/11 01:16:50;;;;;;;50.73;25.30;;;;;;;;;;5015781;28;20194;-70
2020/12/11 01:19:15;;;;;;;49.47;27.30;;;;;;;;;;5022371;28;20201;-70
2020/12/11 01:21:41;;;;;;;50.47;25.37;;;;;;;;;;5019574;28;20198;-70
2020/12/11 01:24:06;;;;;;;49.87;25.73;;;;;;;;;;5019711;28;20549;-69
2020/12/11 01:26:31;;;;;;;53.97;26.43;;;;;;;;;;5028129;28;20209;-69
2020/12/11 01:28:57;;;;;;;47.23;24.50;;;;;;;;;;5017206;28;20736;-70
2020/12/11 01:31:22;;;;;;;48.40;25.53;;;;;;;;;;5021464;28;20252;-70
2020/12/11 01:33:49;;;;;;;47.70;25.20;;;;;;;;;;5015995;28;20590;-70
2020/12/11 01:36:22;;;;;;;47.40;25.10;;;;;;;;;;5029763;28;20573;-70
2020/12/11 01:38:47;;;;;;;48.60;24.67;;;;;;;;;;5021037;28;20540;-70
2020/12/11 01:41:13;;;;;;;46.43;23.87;;;;;;;;;;5027481;28;20190;-70
2020/12/11 01:43:38;;;;;;;48.33;24.67;;;;;;;;;;5020505;28;20261;-70
2020/12/11 01:46:03;;;;;;;48.70;25.27;;;;;;;;;;5031012;28;20186;-70
2020/12/11 01:48:29;;;;;;;44.23;23.93;;;;;;;;;;5020126;28;20660;-70
2020/12/11 01:50:54;;;;;;;47.73;24.70;;;;;;;;;;5032358;28;20229;-70
2020/12/11 01:53:21;;;;;;;46.33;24.33;;;;;;;;;;5020831;28;23580;-70
2020/12/11 01:55:49;;;;;;;45.80;25.73;;;;;;;;;;5031046;28;20299;-70
2020/12/11 01:58:19;;;;;;;47.83;25.53;;;;;;;;;;5026552;28;20214;-70
2020/12/11 02:00:45;;;;;;;50.63;25.60;;;;;;;;;;5022257;28;20186;-70
2020/12/11 02:03:11;;;;;;;47.70;24.67;;;;;;;;;;5028286;28;20596;-70
2020/12/11 02:05:37;;;;;;;45.17;25.13;;;;;;;;;;5021168;28;20222;-70
2020/12/11 02:08:03;;;;;;;48.23;24.27;;;;;;;;;;5030478;28;20221;-70
2020/12/11 02:10:28;;;;;;;46.17;24.37;;;;;;;;;;5021972;28;20292;-70
2020/12/11 02:12:53;;;;;;;48.63;26.10;;;;;;;;;;5026278;28;20631;-70
2020/12/11 02:15:19;;;;;;;45.73;24.33;;;;;;;;;;5022499;28;20684;-70
2020/12/11 02:17:45;;;;;;;49.57;24.97;;;;;;;;;;5024445;28;20264;-70
2020/12/11 02:20:10;;;;;;;44.93;24.87;;;;;;;;;;5022288;28;20190;-70
2020/12/11 02:22:35;;;;;;;45.70;24.83;;;;;;;;;;5027857;28;20218;-70
2020/12/11 02:25:02;;;;;;;46.93;25.00;;;;;;;;;;5023150;28;20281;-70
2020/12/11 02:27:27;;;;;;;48.73;26.03;;;;;;;;;;5027641;28;20181;-70
2020/12/11 02:29:52;;;;;;;47.70;25.33;;;;;;;;;;5030285;28;20534;-70
2020/12/11 02:32:18;;;;;;;42.53;22.73;;;;;;;;;;5019551;28;20193;-70
2020/12/11 02:34:44;;;;;;;44.33;24.57;;;;;;;;;;5026480;28;20708;-70
2020/12/11 02:37:11;;;;;;;49.07;24.93;;;;;;;;;;5022004;28;20185;-70
2020/12/11 02:39:36;;;;;;;47.03;25.87;;;;;;;;;;5026020;28;20186;-70
2020/12/11 02:42:02;;;;;;;47.80;25.40;;;;;;;;;;5021882;28;20189;-70
2020/12/11 02:44:27;;;;;;;49.60;26.07;;;;;;;;;;5029407;28;20218;-70
2020/12/11 02:46:53;;;;;;;46.13;25.60;;;;;;;;;;5017214;28;20213;-70
2020/12/11 02:49:18;;;;;;;56.63;26.43;;;;;;;;;;5025628;28;20605;-70
2020/12/11 02:51:44;;;;;;;51.13;26.07;;;;;;;;;;5014647;28;20190;-70
2020/12/11 02:54:09;;;;;;;52.90;25.73;;;;;;;;;;5031364;28;20190;-70
2020/12/11 02:56:34;;;;;;;47.87;24.83;;;;;;;;;;5016446;28;20273;-70
2020/12/11 02:59:00;;;;;;;50.73;26.10;;;;;;;;;;5028240;28;20660;-70
2020/12/11 03:01:26;;;;;;;53.97;26.00;;;;;;;;;;5023549;28;20182;-70
2020/12/11 03:03:51;;;;;;;51.57;26.63;;;;;;;;;;5020220;28;20210;-70
2020/12/11 03:06:16;;;;;;;51.67;27.10;;;;;;;;;;5028607;28;20190;-70
2020/12/11 03:08:42;;;;;;;52.63;26.87;;;;;;;;;;5018190;28;20288;-70
2020/12/11 03:11:07;;;;;;;50.07;26.73;;;;;;;;;;5029294;28;20549;-70
2020/12/11 03:13:32;;;;;;;52.13;26.37;;;;;;;;;;5019651;28;20206;-72
2020/12/11 03:15:58;;;;;;;52.27;25.90;;;;;;;;;;5027089;28;20633;-70
2020/12/11 03:18:23;;;;;;;50.73;26.37;;;;;;;;;;5018990;28;20297;-70
2020/12/11 03:20:48;;;;;;;50.63;26.00;;;;;;;;;;5029666;28;20273;-70
2020/12/11 03:23:13;;;;;;;54.13;26.43;;;;;;;;;;5018752;28;20187;-70
2020/12/11 03:25:39;;;;;;;50.63;26.47;;;;;;;;;;5028605;28;20281;-70
2020/12/11 03:28:04;;;;;;;49.90;25.97;;;;;;;;;;5019064;28;20626;-70
2020/12/11 03:30:30;;;;;;;56.03;26.23;;;;;;;;;;5028657;28;20221;-70
2020/12/11 03:32:55;;;;;;;54.13;27.43;;;;;;;;;;5024643;28;20509;-70
2020/12/11 03:35:22;;;;;;;56.10;27.53;;;;;;;;;;5016426;28;20352;-70
2020/12/11 03:37:48;;;;;;;52.80;26.30;;;;;;;;;;5025075;28;20671;-70
2020/12/11 03:40:13;;;;;;;49.63;24.83;;;;;;;;;;5021045;28;20194;-70
2020/12/11 03:42:39;;;;;;;56.37;27.37;;;;;;;;;;5028449;28;20179;-70
2020/12/11 03:45:04;;;;;;;55.73;27.10;;;;;;;;;;5016657;28;20214;-70
2020/12/11 03:47:30;;;;;;;52.73;26.63;;;;;;;;;;5026545;28;20191;-70
2020/12/11 03:49:56;;;;;;;57.40;27.33;;;;;;;;;;5018564;28;20673;-70
2020/12/11 03:52:21;;;;;;;56.60;27.33;;;;;;;;;;5023935;28;20198;-70
2020/12/11 03:54:46;;;;;;;54.83;27.47;;;;;;;;;;5020681;28;20517;-70
2020/12/11 03:57:12;;;;;;;50.10;25.07;;;;;;;;;;5027411;28;20277;-70
2020/12/11 03:59:37;;;;;;;52.73;26.47;;;;;;;;;;5019063;28;20529;-70
2020/12/11 04:02:02;;;;;;;61.47;28.63;;;;;;;;;;5026614;28;20289;-70
2020/12/11 04:04:28;;;;;;;55.17;26.30;;;;;;;;;;5027255;28;20686;-71
2020/12/11 04:06:53;;;;;;;57.17;26.20;;;;;;;;;;5018870;28;20292;-70
2020/12/11 04:09:18;;;;;;;57.03;26.17;;;;;;;;;;5025361;28;20196;-70
2020/12/11 04:11:44;;;;;;;58.33;26.33;;;;;;;;;;5018442;28;20182;-70
2020/12/11 04:14:09;;;;;;;59.37;27.37;;;;;;;;;;5026914;28;20506;-70
2020/12/11 04:16:34;;;;;;;57.83;29.00;;;;;;;;;;5019816;28;20198;-70
2020/12/11 04:19:00;;;;;;;62.40;29.77;;;;;;;;;;5017595;28;20592;-70
2020/12/11 04:21:26;;;;;;;59.00;28.70;;;;;;;;;;5017343;28;20556;-70
2020/12/11 04:23:51;;;;;;;62.03;28.07;;;;;;;;;;5026614;28;20241;-70
2020/12/11 04:26:17;;;;;;;57.03;27.43;;;;;;;;;;5010359;28;20269;-70
2020/12/11 04:28:42;;;;;;;60.83;27.57;;;;;;;;;;5021856;28;20259;-70
2020/12/11 04:31:07;;;;;;;55.60;27.50;;;;;;;;;;5022385;28;20272;-70
2020/12/11 04:33:33;;;;;;;59.07;28.73;;;;;;;;;;5023095;28;20652;-71
2020/12/11 04:35:58;;;;;;;57.37;27.07;;;;;;;;;;5027993;28;20190;-71
2020/12/11 04:38:24;;;;;;;63.10;28.90;;;;;;;;;;5014828;28;20260;-71
2020/12/11 04:40:58;;;;;;;60.30;27.47;;;;;;;;;;5028476;28;20186;-70
2020/12/11 04:43:24;;;;;;;59.80;28.30;;;;;;;;;;5018247;28;20206;-71
2020/12/11 04:45:49;;;;;;;56.80;27.30;;;;;;;;;;5026706;28;20220;-71
2020/12/11 04:48:15;;;;;;;54.47;27.47;;;;;;;;;;5017204;28;20236;-71
2020/12/11 04:50:41;;;;;;;56.13;26.93;;;;;;;;;;5023344;28;20190;-71
2020/12/11 04:53:14;;;;;;;58.20;27.97;;;;;;;;;;5016997;28;20550;-71
2020/12/11 04:55:42;;;;;;;53.53;27.40;;;;;;;;;;5024747;28;20277;-71
2020/12/11 04:58:10;;;;;;;53.97;27.43;;;;;;;;;;5015905;28;20182;-71
2020/12/11 05:00:36;;;;;;;53.23;26.30;;;;;;;;;;5023727;28;20205;-71
2020/12/11 05:03:01;;;;;;;56.80;28.03;;;;;;;;;;5017649;28;20178;-70
2020/12/11 05:05:27;;;;;;;52.13;26.07;;;;;;;;;;5026178;28;20189;-70
2020/12/11 05:07:52;;;;;;;52.37;26.13;;;;;;;;;;5025252;28;20287;-71
2020/12/11 05:10:17;;;;;;;59.00;27.87;;;;;;;;;;5014937;28;20228;-71
2020/12/11 05:12:43;;;;;;;53.40;27.00;;;;;;;;;;5027472;28;20231;-71
2020/12/11 05:15:10;;;;;;;52.77;26.43;;;;;;;;;;5018427;28;20182;-71
2020/12/11 05:17:39;;;;;;;57.73;27.30;;;;;;;;;;5025554;28;20185;-71
2020/12/11 05:20:05;;;;;;;57.47;28.30;;;;;;;;;;5017353;28;20190;-71
2020/12/11 05:22:33;;;;;;;56.13;27.63;;;;;;;;;;5027921;28;20185;-71
2020/12/11 05:24:59;;;;;;;53.03;27.37;;;;;;;;;;5017449;28;20205;-71
2020/12/11 05:27:41;;;;;;;55.83;27.93;;;;;;;;;;5026917;28;20180;-70
2020/12/11 05:30:07;;;;;;;57.80;28.43;;;;;;;;;;5013938;28;20629;-70
2020/12/11 05:32:37;;;;;;;53.13;26.83;;;;;;;;;;5020082;28;20174;-70
2020/12/11 05:35:04;;;;;;;52.17;27.27;;;;;;;;;;5012823;28;20237;-71
2020/12/11 05:37:30;;;;;;;55.33;27.10;;;;;;;;;;5022582;28;20209;-71
2020/12/11 05:39:55;;;;;;;58.33;28.30;;;;;;;;;;5012149;28;20649;-71
2020/12/11 05:42:20;;;;;;;53.23;26.27;;;;;;;;;;5028138;28;20524;-71
2020/12/11 05:44:46;;;;;;;58.33;29.87;;;;;;;;;;5021677;28;20217;-71
2020/12/11 05:47:16;;;;;;;62.10;28.90;;;;;;;;;;5018074;28;20607;-71
2020/12/11 05:49:42;;;;;;;69.17;30.17;;;;;;;;;;5022891;28;20961;-71
2020/12/11 05:52:10;;;;;;;57.87;27.73;;;;;;;;;;5017952;28;20225;-70
2020/12/11 05:54:43;;;;;;;58.57;27.57;;;;;;;;;;5024177;28;20186;-71
2020/12/11 05:57:12;;;;;;;59.97;27.60;;;;;;;;;;5019060;28;20189;-71
2020/12/11 05:59:38;;;;;;;58.33;29.03;;;;;;;;;;5019397;28;20243;-71
2020/12/11 06:02:04;;;;;;;62.50;28.90;;;;;;;;;;5019517;28;20201;-71
2020/12/11 06:04:30;;;;;;;57.20;28.47;;;;;;;;;;5024431;28;20546;-71
2020/12/11 06:07:15;;;;;;;54.24;26.65;;;;;;;;;;4998258;28;10000423;-71
2020/12/11 06:09:42;;;;;;;57.73;28.50;;;;;;;;;;5019990;28;20481;-71
2020/12/11 06:12:10;;;;;;;54.80;27.10;;;;;;;;;;5015357;28;20210;-71
2020/12/11 06:15:07;;;;;;;55.97;27.77;;;;;;;;;;5020508;28;20194;-71
2020/12/11 06:18:15;;;;;;;50.80;25.30;;;;;;;;;;5010366;28;20202;-71
2020/12/11 06:20:42;;;;;;;53.37;27.40;;;;;;;;;;5024297;28;20289;-71
2020/12/11 06:23:28;;;;;;;56.60;27.10;;;;;;;;;;5011791;28;20694;-71
2020/12/11 06:25:56;;;;;;;56.53;27.07;;;;;;;;;;5024194;28;20678;-71
2020/12/11 06:28:43;;;;;;;57.37;27.30;;;;;;;;;;5017991;28;20232;-71
2020/12/11 06:31:13;;;;;;;56.57;26.43;;;;;;;;;;5028096;28;20189;-71
2020/12/11 06:33:42;;;;;;;52.33;26.73;;;;;;;;;;5017325;28;20305;-71
2020/12/11 06:36:07;;;;;;;55.40;25.83;;;;;;;;;;5043557;28;20551;-71
2020/12/11 06:38:38;;;;;;;54.37;27.03;;;;;;;;;;5014668;28;20190;-71
2020/12/11 06:41:04;;;;;;;59.77;28.47;;;;;;;;;;5026566;28;20293;-71
2020/12/11 06:43:37;;;;;;;54.07;27.63;;;;;;;;;;5017443;28;20332;-71
2020/12/11 06:46:20;;;;;;;59.23;27.00;;;;;;;;;;5029669;28;20191;-71
2020/12/11 06:49:04;;;;;;;53.67;26.50;;;;;;;;;;5022198;28;20239;-71
2020/12/11 06:51:29;;;;;;;56.07;26.93;;;;;;;;;;5026315;28;20190;-71
2020/12/11 06:53:54;;;;;;;54.17;26.00;;;;;;;;;;4677914;28;10000072;-71
2020/12/11 06:56:43;;;;;;;54.47;27.13;;;;;;;;;;5025163;28;20198;-71
2020/12/11 06:59:22;;;;;;;52.00;26.40;;;;;;;;;;5017576;28;20281;-70
2020/12/11 07:01:48;;;;;;;52.90;26.77;;;;;;;;;;5020757;28;20244;-70
2020/12/11 07:04:13;;;;;;;50.13;25.97;;;;;;;;;;5017986;28;20505;-71
2020/12/11 07:06:38;;;;;;;52.33;26.43;;;;;;;;;;5022071;28;20297;-71
2020/12/11 07:09:04;;;;;;;50.23;26.23;;;;;;;;;;5026380;28;20220;-70
2020/12/11 07:11:29;;;;;;;53.47;26.53;;;;;;;;;;5015940;28;20191;-71
2020/12/11 07:13:55;;;;;;;49.47;25.33;;;;;;;;;;5025571;28;20236;-71
2020/12/11 07:16:20;;;;;;;51.83;25.73;;;;;;;;;;5014564;28;20186;-71
2020/12/11 07:18:46;;;;;;;51.10;25.70;;;;;;;;;;5028527;28;20244;-71
2020/12/11 07:21:12;;;;;;;51.80;25.73;;;;;;;;;;5016974;28;20279;-71
2020/12/11 07:23:38;;;;;;;53.87;25.83;;;;;;;;;;5029240;28;20209;-71
2020/12/11 07:26:04;;;;;;;48.40;25.07;;;;;;;;;;5018627;28;20550;-71
2020/12/11 07:28:29;;;;;;;49.80;25.07;;;;;;;;;;5023561;28;20217;-71
2020/12/11 07:30:55;;;;;;;49.80;25.80;;;;;;;;;;5015113;28;20190;-70
2020/12/11 07:33:20;;;;;;;48.30;24.67;;;;;;;;;;5026694;28;20697;-71
2020/12/11 07:35:48;;;;;;;46.73;24.73;;;;;;;;;;5016872;28;20193;-71
2020/12/11 07:38:16;;;;;;;50.37;25.43;;;;;;;;;;5024858;28;20277;-71
2020/12/11 07:40:42;;;;;;;47.80;24.17;;;;;;;;;;5023628;28;20197;-71
2020/12/11 07:43:11;;;;;;;49.30;25.50;;;;;;;;;;5018696;28;20195;-71
2020/12/11 07:45:37;;;;;;;44.50;23.67;;;;;;;;;;5026490;28;20221;-71
2020/12/11 07:48:03;;;;;;;49.17;25.07;;;;;;;;;;5019765;28;20188;-71
2020/12/11 07:50:30;;;;;;;47.47;25.00;;;;;;;;;;5025963;28;20691;-70
2020/12/11 07:52:57;;;;;;;51.40;26.90;;;;;;;;;;5017735;28;20747;-70
2020/12/11 07:55:29;;;;;;;53.77;25.83;;;;;;;;;;5024139;28;20190;-70
2020/12/11 07:57:58;;;;;;;49.60;24.37;;;;;;;;;;5018013;28;20229;-70
2020/12/11 08:00:25;;;;;;;50.90;26.00;;;;;;;;;;5025909;28;20191;-71
2020/12/11 08:02:55;;;;;;;49.63;25.07;;;;;;;;;;5016197;28;20281;-71
2020/12/11 08:05:22;;;;;;;53.20;26.13;;;;;;;;;;5024953;28;20209;-71
2020/12/11 08:07:52;;;;;;;46.57;24.87;;;;;;;;;;5017536;28;20229;-71
2020/12/11 08:10:23;;;;;;;53.73;24.93;;;;;;;;;;5024996;28;20672;-71
2020/12/11 08:12:50;;;;;;;46.47;24.30;;;;;;;;;;5020687;28;20197;-70
2020/12/11 08:15:29;;;;;;;50.27;26.03;;;;;;;;;;5027106;28;20265;-70
2020/12/11 08:18:13;;;;;;;54.57;25.67;;;;;;;;;;5018235;28;20520;-70
2020/12/11 08:20:48;;;;;;;52.17;24.83;;;;;;;;;;5021927;28;20186;-70
2020/12/11 08:23:17;;;;;;;49.40;25.37;;;;;;;;;;5017673;28;20671;-71
2020/12/11 08:25:42;;;;;;;51.27;25.33;;;;;;;;;;5028768;28;20174;-71
2020/12/11 08:28:08;;;;;;;49.77;25.03;;;;;;;;;;5014194;28;20719;-71
2020/12/11 08:30:34;;;;;;;45.37;23.90;;;;;;;;;;5024943;28;20196;-71
2020/12/11 08:33:08;;;;;;;46.87;25.17;;;;;;;;;;5025576;28;20232;-71
2020/12/11 08:35:34;;;;;;;44.30;23.70;;;;;;;;;;5018383;28;20208;-71
2020/12/11 08:37:59;;;;;;;45.93;24.60;;;;;;;;;;5023530;28;20987;-71
2020/12/11 08:40:26;;;;;;;46.80;23.57;;;;;;;;;;5017437;28;20641;-70
2020/12/11 08:43:04;;;;;;;43.37;23.83;;;;;;;;;;5024157;28;20702;-71
2020/12/11 08:45:34;;;;;;;43.43;23.17;;;;;;;;;;5017988;28;20660;-71
2020/12/11 08:48:20;;;;;;;45.20;23.83;;;;;;;;;;5022454;28;20268;-71
2020/12/11 08:50:49;;;;;;;42.57;23.10;;;;;;;;;;5017971;28;20216;-71
2020/12/11 08:53:16;;;;;;;44.70;23.70;;;;;;;;;;5025869;28;20194;-71
2020/12/11 08:55:42;;;;;;;39.37;22.47;;;;;;;;;;5017532;28;20652;-71
2020/12/11 08:58:08;;;;;;;42.27;21.33;;;;;;;;;;5023334;28;20175;-71
2020/12/11 09:00:35;;;;;;;39.57;22.00;;;;;;;;;;5019305;28;20178;-71
2020/12/11 09:03:00;;;;;;;39.03;22.10;;;;;;;;;;5023995;28;20282;-71
2020/12/11 09:05:26;;;;;;;39.20;21.90;;;;;;;;;;5017024;28;20356;-71
2020/12/11 09:07:52;;;;;;;37.40;21.43;;;;;;;;;;5023765;28;20294;-71
2020/12/11 09:10:18;;;;;;;34.37;20.57;;;;;;;;;;5020983;28;20610;-71
2020/12/11 09:12:46;;;;;;;34.73;20.57;;;;;;;;;;5020246;28;20197;-71
2020/12/11 09:15:12;;;;;;;34.57;19.87;;;;;;;;;;5025342;28;20175;-71
2020/12/11 09:17:37;;;;;;;34.73;20.67;;;;;;;;;;5016438;28;20247;-71
2020/12/11 09:20:04;;;;;;;38.37;20.20;;;;;;;;;;5024560;28;20190;-71
2020/12/11 09:22:29;;;;;;;35.63;20.23;;;;;;;;;;5013592;28;20181;-71
2020/12/11 09:24:54;;;;;;;34.53;19.70;;;;;;;;;;5027809;28;20297;-71
2020/12/11 09:27:20;;;;;;;32.80;19.67;;;;;;;;;;5014049;28;20657;-71
2020/12/11 09:29:47;;;;;;;33.27;19.07;;;;;;;;;;5028336;28;20190;-71
2020/12/11 09:32:22;;;;;;;33.70;19.73;;;;;;;;;;5014704;28;20299;-71
2020/12/11 09:34:47;;;;;;;30.90;18.13;;;;;;;;;;5023792;28;20673;-71
2020/12/11 09:37:14;;;;;;;30.60;18.90;;;;;;;;;;5013693;28;20216;-71
2020/12/11 09:39:40;;;;;;;31.80;19.07;;;;;;;;;;5025879;28;20579;-71
2020/12/11 09:42:40;;;;;;;31.30;18.00;;;;;;;;;;5014666;28;20202;-71
2020/12/11 09:45:12;;;;;;;29.30;17.67;;;;;;;;;;5021482;28;20548;-71
2020/12/11 09:50:30;;;;;;;29.80;17.43;;;;;;;;;;5022454;28;20446;-71
2020/12/11 09:53:03;;;;;;;30.73;18.10;;;;;;;;;;5015999;28;20280;-71
2020/12/11 09:55:38;;;;;;;25.70;16.67;;;;;;;;;;5024694;28;20208;-71
2020/12/11 09:58:03;;;;;;;26.83;17.57;;;;;;;;;;5020746;28;20227;-71
2020/12/11 10:00:28;;;;;;;30.13;17.67;;;;;;;;;;5027692;28;20652;-71
2020/12/11 10:03:01;;;;;;;28.20;17.40;;;;;;;;;;5021945;28;20189;-71
2020/12/11 10:05:27;;;;;;;28.53;17.00;;;;;;;;;;5027050;28;20363;-71
2020/12/11 10:07:52;;;;;;;29.47;17.93;;;;;;;;;;5029951;28;20281;-71
2020/12/11 10:10:18;;;;;;;27.97;16.90;;;;;;;;;;5018261;28;20649;-71
2020/12/11 10:12:44;;;;;;;27.90;16.83;;;;;;;;;;5026900;28;20663;-71
2020/12/11 10:15:10;;;;;;;26.23;16.80;;;;;;;;;;5019547;28;20174;-71
2020/12/11 10:17:36;;;;;;;31.73;18.70;;;;;;;;;;5029089;28;20277;-71
2020/12/11 10:20:03;;;;;;;26.20;16.67;;;;;;;;;;5015164;28;20272;-71
2020/12/11 10:22:28;;;;;;;25.97;16.13;;;;;;;;;;5032287;28;20175;-71
2020/12/11 10:24:53;;;;;;;27.70;16.53;;;;;;;;;;5015208;28;20203;-71
2020/12/11 10:27:19;;;;;;;28.73;16.10;;;;;;;;;;5030323;28;20243;-71
2020/12/11 10:29:44;;;;;;;26.87;16.40;;;;;;;;;;5019280;28;20269;-71
2020/12/11 10:32:09;;;;;;;24.97;15.77;;;;;;;;;;5028814;28;20181;-71
2020/12/11 10:34:35;;;;;;;24.10;15.80;;;;;;;;;;5013479;28;20232;-72
2020/12/11 10:37:14;;;;;;;25.37;16.33;;;;;;;;;;5031895;28;20189;-71
2020/12/11 10:39:39;;;;;;;25.00;15.80;;;;;;;;;;5023159;28;20186;-71
2020/12/11 10:42:06;;;;;;;26.87;16.87;;;;;;;;;;5026688;28;20269;-71
2020/12/11 10:44:32;;;;;;;27.33;16.37;;;;;;;;;;5026386;28;20199;-71
2020/12/11 10:46:57;;;;;;;27.90;15.47;;;;;;;;;;5020516;28;20199;-71
2020/12/11 10:49:22;;;;;;;25.87;16.20;;;;;;;;;;5026073;28;20182;-71
2020/12/11 10:51:49;;;;;;;24.73;15.13;;;;;;;;;;5023797;28;20187;-71
2020/12/11 10:54:17;;;;;;;24.67;16.33;;;;;;;;;;5025656;28;20260;-71
2020/12/11 10:56:43;;;;;;;24.70;16.43;;;;;;;;;;5019531;28;20181;-71
2020/12/11 10:59:08;;;;;;;24.80;15.07;;;;;;;;;;5024670;28;20253;-71
2020/12/11 11:01:34;;;;;;;25.90;15.70;;;;;;;;;;5021526;28;20551;-71
2020/12/11 11:04:00;;;;;;;31.97;17.80;;;;;;;;;;5025455;28;20567;-71
2020/12/11 11:06:29;;;;;;;25.33;15.83;;;;;;;;;;5019151;28;20189;-71
2020/12/11 11:11:33;;;;;;;23.70;15.20;;;;;;;;;;5021651;28;20194;-71
2020/12/11 11:19:44;;;;;;;23.80;15.47;;;;;;;;;;5029943;28;20244;-71
2020/12/11 11:27:12;;;;;;;22.60;14.87;;;;;;;;;;5022592;28;20280;-71
2020/12/11 11:29:37;;;;;;;22.13;14.73;;;;;;;;;;5027965;28;20202;-71
2020/12/11 11:32:02;;;;;;;21.87;14.67;;;;;;;;;;5026152;28;20209;-71
2020/12/11 11:34:28;;;;;;;24.20;15.30;;;;;;;;;;5018705;28;20238;-71
2020/12/11 11:36:53;;;;;;;23.30;15.50;;;;;;;;;;5027077;28;20227;-71
2020/12/11 11:39:19;;;;;;;23.13;14.70;;;;;;;;;;5021169;28;20458;-71
2020/12/11 11:41:46;;;;;;;21.20;14.43;;;;;;;;;;5023706;28;20737;-71
2020/12/11 11:46:46;;;;;;;25.83;15.07;;;;;;;;;;5023653;28;20546;-71
2020/12/11 11:49:14;;;;;;;22.07;14.77;;;;;;;;;;5020146;28;20193;-71
2020/12/11 11:51:48;;;;;;;24.00;15.50;;;;;;;;;;5025172;28;20186;-71
2020/12/11 11:54:13;;;;;;;21.50;14.27;;;;;;;;;;5020759;28;20582;-71
2020/12/11 11:56:39;;;;;;;20.97;14.40;;;;;;;;;;5026623;28;20202;-71
2020/12/11 11:59:04;;;;;;;21.63;14.43;;;;;;;;;;5021092;28;20308;-71
2020/12/11 12:01:29;;;;;;;23.63;14.40;;;;;;;;;;5026642;28;20186;-71
2020/12/11 12:03:55;;;;;;;21.83;14.30;;;;;;;;;;5013082;28;20207;-71
2020/12/11 12:06:22;;;;;;;21.47;13.90;;;;;;;;;;5015611;28;20182;-71
2020/12/11 12:08:47;;;;;;;23.47;14.97;;;;;;;;;;5029568;28;20190;-71
2020/12/11 12:11:12;;;;;;;25.03;14.27;;;;;;;;;;5016860;28;20549;-71
2020/12/11 12:13:38;;;;;;;18.07;12.97;;;;;;;;;;5028396;28;20684;-71
2020/12/11 12:16:03;;;;;;;22.73;14.03;;;;;;;;;;5020527;28;20190;-71
2020/12/11 12:18:29;;;;;;;22.10;14.97;;;;;;;;;;5025274;28;20185;-71
2020/12/11 12:21:03;;;;;;;20.17;13.70;;;;;;;;;;5016502;28;20787;-71
2020/12/11 12:29:12;;;;;;;21.37;14.03;;;;;;;;;;5029845;28;20200;-71
2020/12/11 12:31:51;;;;;;;24.30;14.57;;;;;;;;;;5018567;28;20649;-71
2020/12/11 12:42:42;;;;;;;22.60;13.83;;;;;;;;;;5004857;28;20230;-71
2020/12/11 12:45:08;;;;;;;19.53;14.47;;;;;;;;;;5024486;28;20316;-71
2020/12/11 12:47:35;;;;;;;23.07;15.40;;;;;;;;;;5021942;28;20194;-71
2020/12/11 12:50:01;;;;;;;23.93;14.67;;;;;;;;;;5025142;28;20186;-71
2020/12/11 12:52:27;;;;;;;21.87;14.50;;;;;;;;;;5020742;28;20193;-71
2020/12/11 12:54:52;;;;;;;23.37;14.53;;;;;;;;;;5022775;28;20236;-71
2020/12/11 12:57:22;;;;;;;22.57;14.37;;;;;;;;;;5019489;28;20182;-71
2020/12/11 13:07:19;;;;;;;22.47;14.30;;;;;;;;;;5019812;28;20691;-71
2020/12/11 13:09:44;;;;;;;22.17;14.53;;;;;;;;;;5023908;28;20326;-71
2020/12/11 13:12:10;;;;;;;22.67;13.93;;;;;;;;;;5027935;28;20644;-71
2020/12/11 13:14:35;;;;;;;19.13;13.40;;;;;;;;;;5013829;28;20182;-71
2020/12/11 13:17:04;;;;;;;20.47;13.50;;;;;;;;;;5023536;28;20189;-71
2020/12/11 13:19:32;;;;;;;21.53;13.87;;;;;;;;;;5016672;28;20352;-71
2020/12/11 13:22:25;;;;;;;20.37;13.90;;;;;;;;;;5024186;28;20182;-71
2020/12/11 13:27:34;;;;;;;20.87;13.37;;;;;;;;;;5022491;28;20228;-71
2020/12/11 13:29:59;;;;;;;18.40;12.73;;;;;;;;;;5019077;28;20181;-71
2020/12/11 13:32:29;;;;;;;20.53;13.37;;;;;;;;;;5019832;28;20186;-71
2020/12/11 13:34:55;;;;;;;19.13;12.47;;;;;;;;;;5017621;28;20696;-71
2020/12/11 13:37:20;;;;;;;18.37;12.40;;;;;;;;;;5025628;28;20217;-71
2020/12/11 13:39:46;;;;;;;19.90;12.73;;;;;;;;;;5016375;28;20216;-71
2020/12/11 13:42:11;;;;;;;17.00;11.90;;;;;;;;;;5024148;28;20198;-71
2020/12/11 13:44:37;;;;;;;18.87;12.40;;;;;;;;;;5015973;28;20680;-72
2020/12/11 13:47:04;;;;;;;19.20;12.87;;;;;;;;;;5023510;28;20198;-71
2020/12/11 13:49:31;;;;;;;20.83;12.60;;;;;;;;;;5015811;28;20272;-71
2020/12/11 13:51:56;;;;;;;18.97;12.50;;;;;;;;;;5025559;28;20204;-71
2020/12/11 13:54:21;;;;;;;17.83;12.23;;;;;;;;;;4318640;28;10000828;-71
2020/12/11 13:56:50;;;;;;;17.70;11.53;;;;;;;;;;5018317;28;20205;-71
2020/12/11 13:59:16;;;;;;;22.33;12.57;;;;;;;;;;5021919;28;20623;-71
2020/12/11 14:01:48;;;;;;;16.57;12.03;;;;;;;;;;5013720;28;20189;-71
2020/12/11 14:04:15;;;;;;;16.67;11.47;;;;;;;;;;5023124;28;20198;-71
2020/12/11 14:06:40;;;;;;;17.40;11.63;;;;;;;;;;5008306;28;20202;-71
2020/12/11 14:09:06;;;;;;;19.97;12.93;;;;;;;;;;5021211;28;20248;-71
2020/12/11 14:11:32;;;;;;;16.67;12.00;;;;;;;;;;5009804;28;20205;-71
2020/12/11 14:13:57;;;;;;;15.87;11.50;;;;;;;;;;5019443;28;20183;-71
2020/12/11 14:19:16;;;;;;;18.17;12.00;;;;;;;;;;5019848;28;20190;-71
2020/12/11 14:24:11;;;;;;;19.37;12.47;;;;;;;;;;5020270;28;20222;-71
2020/12/11 14:26:40;;;;;;;19.27;12.03;;;;;;;;;;5011457;28;21367;-71
2020/12/11 14:29:05;;;;;;;17.97;12.57;;;;;;;;;;5023669;28;20625;-71
2020/12/11 14:31:31;;;;;;;16.00;11.27;;;;;;;;;;5008250;28;20182;-71
2020/12/11 14:33:57;;;;;;;18.00;11.67;;;;;;;;;;5022273;28;20222;-71
2020/12/11 14:36:22;;;;;;;17.23;11.33;;;;;;;;;;5018180;28;20190;-71
2020/12/11 14:41:13;;;;;;;20.33;12.60;;;;;;;;;;5021694;28;20277;-71
2020/12/11 14:43:38;;;;;;;17.00;11.37;;;;;;;;;;5016383;28;20186;-71
2020/12/11 14:46:03;;;;;;;18.37;10.93;;;;;;;;;;5024404;28;20281;-71
2020/12/11 14:48:30;;;;;;;16.93;11.13;;;;;;;;;;5021320;28;20495;-71
2020/12/11 14:50:56;;;;;;;17.33;11.70;;;;;;;;;;5025343;28;20448;-71
2020/12/11 14:53:21;;;;;;;17.27;11.07;;;;;;;;;;5005775;28;20207;-71
2020/12/11 14:55:47;;;;;;;18.27;11.67;;;;;;;;;;5012518;28;20241;-71
2020/12/11 14:58:14;;;;;;;19.53;11.13;;;;;;;;;;5010451;28;20256;-71
2020/12/11 15:00:39;;;;;;;19.17;11.23;;;;;;;;;;5018315;28;20178;-71
2020/12/11 15:03:05;;;;;;;18.93;11.73;;;;;;;;;;5008335;28;20182;-71
2020/12/11 15:05:30;;;;;;;18.80;11.40;;;;;;;;;;5015114;28;20218;-71
2020/12/11 15:07:56;;;;;;;17.07;11.67;;;;;;;;;;5017111;28;20271;-71